This is the latest recevied weather packets stored in our database for station/object KD9ZDW. If no packets are shown the sender has not sent any weather packets the latest 10 day(s).
| Time | Temp. | Humidity | Pressure | Rain* | Wind** | Luminosity | Snow |
|---|---|---|---|---|---|---|---|
| 1778024893 | 8.89° C | 94% | 1010.9 hPa | 1.78 mm | - | 10 W/m² | - |
| 1778024591 | 8.89° C | 94% | 1010.8 hPa | 1.78 mm | - | 11 W/m² | - |
| 1778024287 | 8.89° C | 94% | 1011 hPa | 0 mm | - | 10 W/m² | - |
| 1778023985 | 8.89° C | 94% | 1010.8 hPa | 1.27 mm | - | 12 W/m² | - |
| 1778023682 | 8.89° C | 94% | 1010.5 hPa | 1.27 mm | - | 15 W/m² | - |
| 1778023380 | 8.89° C | 94% | 1010.5 hPa | 0 mm | - | 15 W/m² | - |
| 1778023076 | 8.89° C | 94% | 1010.7 hPa | 0 mm | - | 15 W/m² | - |
| 1778022775 | 8.89° C | 94% | 1010.7 hPa | 1.78 mm | - | 23 W/m² | - |
| 1778022472 | 8.89° C | 94% | 1010.8 hPa | 1.78 mm | - | 17 W/m² | - |
| 1778022169 | 8.89° C | 93% | 1011.1 hPa | 0 mm | - | 20 W/m² | - |
| 1778021866 | 8.89° C | 93% | 1011 hPa | 0 mm | - | 28 W/m² | - |
| 1778021563 | 8.33° C | 93% | 1010.8 hPa | 1.27 mm | - | 21 W/m² | - |
| 1778021258 | 8.89° C | 93% | 1010.9 hPa | 1.27 mm | - | 27 W/m² | - |
| 1778020956 | 8.89° C | 93% | 1010.8 hPa | 1.78 mm | - | 24 W/m² | - |
| 1778020653 | 8.89° C | 93% | 1010.7 hPa | 1.78 mm | - | 30 W/m² | - |
| 1778020349 | 8.89° C | 93% | 1010.9 hPa | 0 mm | - | 48 W/m² | - |
| 1778020045 | 8.89° C | 93% | 1010.9 hPa | 1.27 mm | - | 52 W/m² | - |
| 1778019741 | 8.89° C | 93% | 1011 hPa | 1.27 mm | - | 44 W/m² | - |
| 1778019439 | 8.89° C | 93% | 1011 hPa | 1.78 mm | - | 50 W/m² | - |
| 1778019135 | 8.89° C | 93% | 1011.1 hPa | 1.27 mm | - | 39 W/m² | - |
| 1778018832 | 8.89° C | 92% | 1011.1 hPa | 1.27 mm | - | 44 W/m² | - |
| 1778018530 | 8.89° C | 92% | 1010.9 hPa | 1.78 mm | - | 40 W/m² | - |
| 1778018228 | 8.89° C | 92% | 1010.9 hPa | 3.05 mm | - | 28 W/m² | - |
| 1778017926 | 8.89° C | 91% | 1010.8 hPa | 3.05 mm | - | 35 W/m² | - |
| 1778017623 | 8.89° C | 91% | 1010.9 hPa | 3.56 mm | - | 34 W/m² | - |
* Rain latest hour (hover to see other rain measurements)
** Current wind speed in m/s (hover to see current wind gust speed)